sensor_id;sensor_type;location;lat;lon;timestamp;temperature;humidity
52073;DHT22;38074;51.232;6.826;2023-04-19T00:04:12;23.50;42.40
52073;DHT22;38074;51.232;6.826;2023-04-19T00:11:29;23.50;42.30
52073;DHT22;38074;51.232;6.826;2023-04-19T00:18:44;23.50;42.30
52073;DHT22;38074;51.232;6.826;2023-04-19T00:26:04;23.50;42.30
52073;DHT22;38074;51.232;6.826;2023-04-19T00:33:19;23.50;42.30
52073;DHT22;38074;51.232;6.826;2023-04-19T00:40:36;23.50;42.30
52073;DHT22;38074;51.232;6.826;2023-04-19T00:47:52;23.50;42.20
52073;DHT22;38074;51.232;6.826;2023-04-19T00:55:08;23.50;42.20
52073;DHT22;38074;51.232;6.826;2023-04-19T01:02:24;23.50;42.20
52073;DHT22;38074;51.232;6.826;2023-04-19T01:09:42;23.50;42.20
52073;DHT22;38074;51.232;6.826;2023-04-19T01:16:58;23.50;42.20
52073;DHT22;38074;51.232;6.826;2023-04-19T01:24:13;23.50;42.20
52073;DHT22;38074;51.232;6.826;2023-04-19T01:31:29;23.50;42.20
52073;DHT22;38074;51.232;6.826;2023-04-19T01:38:44;23.50;42.20
52073;DHT22;38074;51.232;6.826;2023-04-19T01:46:01;23.50;42.20
52073;DHT22;38074;51.232;6.826;2023-04-19T01:53:17;23.50;42.10
52073;DHT22;38074;51.232;6.826;2023-04-19T02:00:33;23.50;42.20
52073;DHT22;38074;51.232;6.826;2023-04-19T02:07:48;23.50;42.20
52073;DHT22;38074;51.232;6.826;2023-04-19T02:15:04;23.50;42.20
52073;DHT22;38074;51.232;6.826;2023-04-19T02:22:20;23.50;42.20
52073;DHT22;38074;51.232;6.826;2023-04-19T02:29:36;23.50;42.20
52073;DHT22;38074;51.232;6.826;2023-04-19T02:36:52;23.50;42.20
52073;DHT22;38074;51.232;6.826;2023-04-19T02:44:07;23.50;42.20
52073;DHT22;38074;51.232;6.826;2023-04-19T02:51:23;23.50;42.20
52073;DHT22;38074;51.232;6.826;2023-04-19T02:58:38;23.50;42.20
52073;DHT22;38074;51.232;6.826;2023-04-19T03:05:54;23.50;42.30
52073;DHT22;38074;51.232;6.826;2023-04-19T03:13:09;23.50;42.30
52073;DHT22;38074;51.232;6.826;2023-04-19T03:20:25;23.50;42.20
52073;DHT22;38074;51.232;6.826;2023-04-19T03:27:41;23.50;42.30
52073;DHT22;38074;51.232;6.826;2023-04-19T03:34:59;23.50;42.30
52073;DHT22;38074;51.232;6.826;2023-04-19T03:42:15;23.50;42.30
52073;DHT22;38074;51.232;6.826;2023-04-19T03:49:30;23.50;42.30
52073;DHT22;38074;51.232;6.826;2023-04-19T03:56:46;23.50;42.30
52073;DHT22;38074;51.232;6.826;2023-04-19T04:04:02;23.50;42.30
52073;DHT22;38074;51.232;6.826;2023-04-19T04:11:17;23.50;42.30
52073;DHT22;38074;51.232;6.826;2023-04-19T04:18:33;23.50;42.20
52073;DHT22;38074;51.232;6.826;2023-04-19T04:25:56;23.50;42.20
52073;DHT22;38074;51.232;6.826;2023-04-19T04:33:13;23.50;42.20
52073;DHT22;38074;51.232;6.826;2023-04-19T04:40:28;23.50;42.10
52073;DHT22;38074;51.232;6.826;2023-04-19T04:47:44;23.50;42.10
52073;DHT22;38074;51.232;6.826;2023-04-19T04:55:03;23.40;42.00
52073;DHT22;38074;51.232;6.826;2023-04-19T05:02:19;23.50;42.10
52073;DHT22;38074;51.232;6.826;2023-04-19T05:09:34;23.50;42.00
52073;DHT22;38074;51.232;6.826;2023-04-19T05:16:50;23.50;42.00
52073;DHT22;38074;51.232;6.826;2023-04-19T05:24:06;23.50;42.00
52073;DHT22;38074;51.232;6.826;2023-04-19T05:31:24;23.50;42.60
52073;DHT22;38074;51.232;6.826;2023-04-19T05:38:39;23.60;43.00
52073;DHT22;38074;51.232;6.826;2023-04-19T05:45:55;23.60;43.20
52073;DHT22;38074;51.232;6.826;2023-04-19T05:53:10;23.70;43.40
52073;DHT22;38074;51.232;6.826;2023-04-19T06:00:26;23.70;43.60
52073;DHT22;38074;51.232;6.826;2023-04-19T06:07:42;23.70;43.50
52073;DHT22;38074;51.232;6.826;2023-04-19T06:14:58;23.80;43.30
52073;DHT22;38074;51.232;6.826;2023-04-19T06:22:13;23.80;43.20
52073;DHT22;38074;51.232;6.826;2023-04-19T06:29:29;23.90;43.20
52073;DHT22;38074;51.232;6.826;2023-04-19T06:36:44;24.00;43.20
52073;DHT22;38074;51.232;6.826;2023-04-19T06:44:00;24.00;43.30
52073;DHT22;38074;51.232;6.826;2023-04-19T06:51:15;24.00;43.20
52073;DHT22;38074;51.232;6.826;2023-04-19T06:58:31;23.90;43.20
52073;DHT22;38074;51.232;6.826;2023-04-19T07:05:47;23.80;43.30
52073;DHT22;38074;51.232;6.826;2023-04-19T07:13:02;23.80;43.20
52073;DHT22;38074;51.232;6.826;2023-04-19T07:20:18;23.70;43.10
52073;DHT22;38074;51.232;6.826;2023-04-19T07:27:34;23.80;43.20
52073;DHT22;38074;51.232;6.826;2023-04-19T07:34:50;23.90;43.20
52073;DHT22;38074;51.232;6.826;2023-04-19T07:42:06;24.00;43.00
52073;DHT22;38074;51.232;6.826;2023-04-19T07:49:21;24.10;43.00
52073;DHT22;38074;51.232;6.826;2023-04-19T07:56:37;24.10;43.40
52073;DHT22;38074;51.232;6.826;2023-04-19T08:03:52;24.10;42.70
52073;DHT22;38074;51.232;6.826;2023-04-19T08:11:08;24.10;42.70
52073;DHT22;38074;51.232;6.826;2023-04-19T08:18:24;24.20;42.70
52073;DHT22;38074;51.232;6.826;2023-04-19T08:25:40;24.20;42.70
52073;DHT22;38074;51.232;6.826;2023-04-19T08:32:55;24.20;42.70
52073;DHT22;38074;51.232;6.826;2023-04-19T08:40:11;24.20;42.60
52073;DHT22;38074;51.232;6.826;2023-04-19T08:47:27;24.20;42.50
52073;DHT22;38074;51.232;6.826;2023-04-19T08:54:43;24.20;42.50
52073;DHT22;38074;51.232;6.826;2023-04-19T09:02:02;24.20;42.40
52073;DHT22;38074;51.232;6.826;2023-04-19T09:09:22;24.20;42.30
52073;DHT22;38074;51.232;6.826;2023-04-19T09:16:37;24.20;42.20
52073;DHT22;38074;51.232;6.826;2023-04-19T09:23:53;24.20;42.20
52073;DHT22;38074;51.232;6.826;2023-04-19T09:31:12;24.20;42.10
52073;DHT22;38074;51.232;6.826;2023-04-19T09:38:28;24.20;42.00
52073;DHT22;38074;51.232;6.826;2023-04-19T09:45:44;24.20;41.90
52073;DHT22;38074;51.232;6.826;2023-04-19T09:53:01;24.20;41.80
52073;DHT22;38074;51.232;6.826;2023-04-19T10:00:17;24.20;41.70
52073;DHT22;38074;51.232;6.826;2023-04-19T10:07:33;24.20;41.60
52073;DHT22;38074;51.232;6.826;2023-04-19T10:14:49;24.20;41.80
52073;DHT22;38074;51.232;6.826;2023-04-19T10:22:05;24.30;41.70
52073;DHT22;38074;51.232;6.826;2023-04-19T10:37:14;24.40;41.30
52073;DHT22;38074;51.232;6.826;2023-04-19T10:44:30;24.40;41.20
52073;DHT22;38074;51.232;6.826;2023-04-19T10:51:50;24.40;41.00
52073;DHT22;38074;51.232;6.826;2023-04-19T10:59:15;24.40;40.80
52073;DHT22;38074;51.232;6.826;2023-04-19T11:07:23;24.40;40.70
52073;DHT22;38074;51.232;6.826;2023-04-19T11:14:16;24.40;40.20
52073;DHT22;38074;51.232;6.826;2023-04-19T11:21:31;24.10;39.60
52073;DHT22;38074;51.232;6.826;2023-04-19T11:28:48;24.00;38.30
52073;DHT22;38074;51.232;6.826;2023-04-19T11:36:10;24.00;38.80
52073;DHT22;38074;51.232;6.826;2023-04-19T11:43:34;24.10;38.50
52073;DHT22;38074;51.232;6.826;2023-04-19T11:50:57;24.20;38.30
52073;DHT22;38074;51.232;6.826;2023-04-19T11:58:45;24.20;38.20
52073;DHT22;38074;51.232;6.826;2023-04-19T12:06:03;24.20;38.10
52073;DHT22;38074;51.232;6.826;2023-04-19T12:13:24;24.30;38.10
52073;DHT22;38074;51.232;6.826;2023-04-19T12:20:47;24.30;38.00
52073;DHT22;38074;51.232;6.826;2023-04-19T12:28:03;24.30;38.00
52073;DHT22;38074;51.232;6.826;2023-04-19T12:35:19;24.30;38.00
52073;DHT22;38074;51.232;6.826;2023-04-19T12:42:35;24.30;38.00
52073;DHT22;38074;51.232;6.826;2023-04-19T12:49:50;24.20;37.90
52073;DHT22;38074;51.232;6.826;2023-04-19T12:57:06;24.20;38.00
52073;DHT22;38074;51.232;6.826;2023-04-19T13:04:22;24.30;38.00
52073;DHT22;38074;51.232;6.826;2023-04-19T13:11:37;24.30;37.90
52073;DHT22;38074;51.232;6.826;2023-04-19T13:18:53;24.30;37.80
52073;DHT22;38074;51.232;6.826;2023-04-19T13:26:09;24.30;37.80
52073;DHT22;38074;51.232;6.826;2023-04-19T13:33:25;24.30;37.80
52073;DHT22;38074;51.232;6.826;2023-04-19T13:40:41;24.30;38.40
52073;DHT22;38074;51.232;6.826;2023-04-19T13:47:56;24.30;37.60
52073;DHT22;38074;51.232;6.826;2023-04-19T13:55:12;24.20;37.50
52073;DHT22;38074;51.232;6.826;2023-04-19T14:02:27;24.10;37.30
52073;DHT22;38074;51.232;6.826;2023-04-19T14:09:43;24.10;37.20
52073;DHT22;38074;51.232;6.826;2023-04-19T14:16:59;24.00;37.00
52073;DHT22;38074;51.232;6.826;2023-04-19T14:24:14;24.00;37.00
52073;DHT22;38074;51.232;6.826;2023-04-19T14:31:30;24.00;36.90
52073;DHT22;38074;51.232;6.826;2023-04-19T14:38:45;24.00;36.80
52073;DHT22;38074;51.232;6.826;2023-04-19T14:46:01;24.00;36.80
52073;DHT22;38074;51.232;6.826;2023-04-19T14:53:16;24.00;36.70
52073;DHT22;38074;51.232;6.826;2023-04-19T15:00:32;24.00;36.70
52073;DHT22;38074;51.232;6.826;2023-04-19T15:07:48;24.00;37.30
52073;DHT22;38074;51.232;6.826;2023-04-19T15:15:04;24.00;36.70
52073;DHT22;38074;51.232;6.826;2023-04-19T15:22:20;24.00;36.60
52073;DHT22;38074;51.232;6.826;2023-04-19T15:29:35;24.00;36.60
52073;DHT22;38074;51.232;6.826;2023-04-19T15:36:53;24.00;36.60
52073;DHT22;38074;51.232;6.826;2023-04-19T15:44:09;24.00;36.50
52073;DHT22;38074;51.232;6.826;2023-04-19T15:51:24;24.00;36.40
52073;DHT22;38074;51.232;6.826;2023-04-19T15:58:41;24.00;36.40
52073;DHT22;38074;51.232;6.826;2023-04-19T16:05:57;24.00;36.40
52073;DHT22;38074;51.232;6.826;2023-04-19T16:13:12;23.90;36.20
52073;DHT22;38074;51.232;6.826;2023-04-19T16:20:28;23.90;36.20
52073;DHT22;38074;51.232;6.826;2023-04-19T16:27:45;23.90;36.10
52073;DHT22;38074;51.232;6.826;2023-04-19T16:35:02;23.90;36.00
52073;DHT22;38074;51.232;6.826;2023-04-19T16:42:18;23.90;35.90
52073;DHT22;38074;51.232;6.826;2023-04-19T16:49:33;23.90;35.90
52073;DHT22;38074;51.232;6.826;2023-04-19T16:56:49;23.90;35.90
52073;DHT22;38074;51.232;6.826;2023-04-19T17:04:04;23.90;35.70
52073;DHT22;38074;51.232;6.826;2023-04-19T17:11:20;23.90;35.70
52073;DHT22;38074;51.232;6.826;2023-04-19T17:18:35;23.90;35.70
52073;DHT22;38074;51.232;6.826;2023-04-19T17:25:51;23.90;35.60
52073;DHT22;38074;51.232;6.826;2023-04-19T17:33:06;23.90;35.70
52073;DHT22;38074;51.232;6.826;2023-04-19T17:40:22;23.90;35.60
52073;DHT22;38074;51.232;6.826;2023-04-19T17:47:38;23.90;35.50
52073;DHT22;38074;51.232;6.826;2023-04-19T17:54:53;23.90;35.40
52073;DHT22;38074;51.232;6.826;2023-04-19T18:02:09;24.00;35.70
52073;DHT22;38074;51.232;6.826;2023-04-19T18:09:24;24.00;35.70
52073;DHT22;38074;51.232;6.826;2023-04-19T18:16:40;24.00;35.60
52073;DHT22;38074;51.232;6.826;2023-04-19T18:23:55;24.00;35.60
52073;DHT22;38074;51.232;6.826;2023-04-19T18:31:11;23.90;35.40
52073;DHT22;38074;51.232;6.826;2023-04-19T18:38:27;23.90;35.40
52073;DHT22;38074;51.232;6.826;2023-04-19T18:45:42;23.90;35.40
52073;DHT22;38074;51.232;6.826;2023-04-19T18:52:58;23.90;35.50
52073;DHT22;38074;51.232;6.826;2023-04-19T19:00:14;24.10;35.70
52073;DHT22;38074;51.232;6.826;2023-04-19T19:07:30;24.20;35.80
52073;DHT22;38074;51.232;6.826;2023-04-19T19:14:45;24.10;35.90
52073;DHT22;38074;51.232;6.826;2023-04-19T19:22:01;24.00;35.90
52073;DHT22;38074;51.232;6.826;2023-04-19T19:29:16;23.90;35.80
52073;DHT22;38074;51.232;6.826;2023-04-19T19:36:32;23.90;35.80
52073;DHT22;38074;51.232;6.826;2023-04-19T19:43:48;23.90;35.70
52073;DHT22;38074;51.232;6.826;2023-04-19T19:51:04;23.90;35.70
52073;DHT22;38074;51.232;6.826;2023-04-19T19:58:20;23.90;35.70
52073;DHT22;38074;51.232;6.826;2023-04-19T20:05:36;23.90;35.60
52073;DHT22;38074;51.232;6.826;2023-04-19T20:12:52;23.80;35.60
52073;DHT22;38074;51.232;6.826;2023-04-19T20:20:11;23.80;35.50
52073;DHT22;38074;51.232;6.826;2023-04-19T20:27:27;23.80;35.50
52073;DHT22;38074;51.232;6.826;2023-04-19T20:34:43;23.90;35.60
52073;DHT22;38074;51.232;6.826;2023-04-19T20:41:58;23.80;35.50
52073;DHT22;38074;51.232;6.826;2023-04-19T20:49:14;23.80;35.60
52073;DHT22;38074;51.232;6.826;2023-04-19T20:56:30;23.90;35.60
52073;DHT22;38074;51.232;6.826;2023-04-19T21:03:46;23.90;35.60
52073;DHT22;38074;51.232;6.826;2023-04-19T21:11:02;23.80;35.60
52073;DHT22;38074;51.232;6.826;2023-04-19T21:18:17;23.80;35.60
52073;DHT22;38074;51.232;6.826;2023-04-19T21:25:33;23.90;35.70
52073;DHT22;38074;51.232;6.826;2023-04-19T21:32:48;23.90;35.70
52073;DHT22;38074;51.232;6.826;2023-04-19T21:40:04;23.80;35.60
52073;DHT22;38074;51.232;6.826;2023-04-19T21:47:20;23.80;35.60
52073;DHT22;38074;51.232;6.826;2023-04-19T21:54:35;23.80;35.70
52073;DHT22;38074;51.232;6.826;2023-04-19T22:01:51;23.80;35.60
52073;DHT22;38074;51.232;6.826;2023-04-19T22:09:06;23.80;35.70
52073;DHT22;38074;51.232;6.826;2023-04-19T22:16:22;23.80;35.60
52073;DHT22;38074;51.232;6.826;2023-04-19T22:23:37;23.80;35.60
52073;DHT22;38074;51.232;6.826;2023-04-19T22:30:53;23.80;35.60
52073;DHT22;38074;51.232;6.826;2023-04-19T22:38:08;23.80;35.60
52073;DHT22;38074;51.232;6.826;2023-04-19T22:45:24;23.80;35.50
52073;DHT22;38074;51.232;6.826;2023-04-19T22:52:39;23.70;35.50
52073;DHT22;38074;51.232;6.826;2023-04-19T22:59:55;23.80;35.60
52073;DHT22;38074;51.232;6.826;2023-04-19T23:07:11;23.70;35.40
52073;DHT22;38074;51.232;6.826;2023-04-19T23:14:27;23.70;35.40
52073;DHT22;38074;51.232;6.826;2023-04-19T23:21:43;23.70;35.40
52073;DHT22;38074;51.232;6.826;2023-04-19T23:28:58;23.70;35.30
52073;DHT22;38074;51.232;6.826;2023-04-19T23:36:14;23.70;35.30
52073;DHT22;38074;51.232;6.826;2023-04-19T23:43:30;23.70;35.30
52073;DHT22;38074;51.232;6.826;2023-04-19T23:50:45;23.70;35.30
52073;DHT22;38074;51.232;6.826;2023-04-19T23:58:01;23.70;35.20
